Map

Track Data

SID SEASON NUMBER BASIN SUBBASIN NAME ISO_TIME NATURE LAT LON WMO_WIND WMO_PRES WMO_AGENCY TRACK_TYPE DIST2LAND LANDFALL IFLAG USA_AGENCY USA_ATCF_ID USA_LAT USA_LON USA_RECORD USA_STATUS USA_WIND USA_PRES USA_SSHS USA_R34_NE USA_R34_SE USA_R34_SW USA_R34_NW USA_R50_NE USA_R50_SE USA_R50_SW USA_R50_NW USA_R64_NE USA_R64_SE USA_R64_SW USA_R64_NW USA_POCI USA_ROCI USA_RMW USA_EYE TOKYO_LAT TOKYO_LON TOKYO_GRADE TOKYO_WIND TOKYO_PRES TOKYO_R50_DIR TOKYO_R50_LONG TOKYO_R50_SHORT TOKYO_R30_DIR TOKYO_R30_LONG TOKYO_R30_SHORT TOKYO_LAND CMA_LAT CMA_LON CMA_CAT CMA_WIND CMA_PRES HKO_LAT HKO_LON HKO_CAT HKO_WIND HKO_PRES NEWDELHI_LAT NEWDELHI_LON NEWDELHI_GRADE NEWDELHI_WIND NEWDELHI_PRES NEWDELHI_CI NEWDELHI_DP NEWDELHI_POCI REUNION_LAT REUNION_LON REUNION_TYPE REUNION_WIND REUNION_PRES REUNION_TNUM REUNION_CI REUNION_RMW REUNION_R34_NE REUNION_R34_SE REUNION_R34_SW REUNION_R34_NW REUNION_R50_NE REUNION_R50_SE REUNION_R50_SW REUNION_R50_NW REUNION_R64_NE REUNION_R64_SE REUNION_R64_SW REUNION_R64_NW BOM_LAT BOM_LON BOM_TYPE BOM_WIND BOM_PRES BOM_TNUM BOM_CI BOM_RMW BOM_R34_NE BOM_R34_SE BOM_R34_SW BOM_R34_NW BOM_R50_NE BOM_R50_SE BOM_R50_SW BOM_R50_NW BOM_R64_NE BOM_R64_SE BOM_R64_SW BOM_R64_NW BOM_ROCI BOM_POCI BOM_EYE BOM_POS_METHOD BOM_PRES_METHOD NADI_LAT NADI_LON NADI_CAT NADI_WIND NADI_PRES WELLINGTON_LAT WELLINGTON_LON WELLINGTON_WIND WELLINGTON_PRES DS824_LAT DS824_LON DS824_STAGE DS824_WIND DS824_PRES TD9636_LAT TD9636_LON TD9636_STAGE TD9636_WIND TD9636_PRES TD9635_LAT TD9635_LON TD9635_WIND TD9635_PRES TD9635_ROCI NEUMANN_LAT NEUMANN_LON NEUMANN_CLASS NEUMANN_WIND NEUMANN_PRES MLC_LAT MLC_LON MLC_CLASS MLC_WIND MLC_PRES USA_GUST BOM_GUST BOM_GUST_PER REUNION_GUST REUNION_GUST_PER USA_SEAHGT USA_SEARAD_NE USA_SEARAD_SE USA_SEARAD_SW USA_SEARAD_NW STORM_SPEED STORM_DIR
1985148N15067 1985 39 NI AS NOT_NAMED 1985-05-28 06:00:00 NR 15.1000 67.4000 main 650 642 O_________O___ jtwc_io IO021985 15.1000 67.4000 30 -1 15.1000 67.4000 1 30 7 8
1985148N15067 1985 39 NI AS NOT_NAMED 1985-05-28 09:00:00 NR 15.4500 67.4508 main 630 624 P_________P___ IO021985 15.4500 67.4500 32 -1 15.4500 67.4516 1 32 7 8
1985148N15067 1985 39 NI AS NOT_NAMED 1985-05-28 12:00:00 NR 15.8000 67.5000 main 624 619 O_________O___ jtwc_io IO021985 15.8000 67.5000 35 0 15.8000 67.5000 2 35 7 7
1985148N15067 1985 39 NI AS NOT_NAMED 1985-05-28 15:00:00 NR 16.1500 67.5467 main 612 578 P_________P___ IO021985 16.1500 67.5500 37 0 16.1500 67.5433 2 37 7 7
1985148N15067 1985 39 NI AS NOT_NAMED 1985-05-28 18:00:00 NR 16.5000 67.5933 main 578 550 O_________P___ jtwc_io IO021985 16.5000 67.6000 40 0 16.5000 67.5866 2 40 7 7
1985148N15067 1985 39 NI AS NOT_NAMED 1985-05-28 21:00:00 NR 16.8500 67.6433 main 550 507 P_________P___ IO021985 16.8500 67.6500 42 0 16.8500 67.6365 2 42 7 8
1985148N15067 1985 39 NI AS NOT_NAMED 1985-05-29 00:00:00 NR 17.2000 67.7000 main 507 474 O_________O___ jtwc_io IO021985 17.2000 67.7000 45 0 17.2000 67.7000 2 45 7 9
1985148N15067 1985 39 NI AS NOT_NAMED 1985-05-29 03:00:00 NR 17.5480 67.7604 main 474 437 P_________P___ IO021985 17.5500 67.7351 45 0 17.5459 67.7856 2 46 7 11
1985148N15067 1985 39 NI AS NOT_NAMED 1985-05-29 06:00:00 NR 17.8963 67.8425 main 437 397 O_________P___ jtwc_io IO021985 17.9000 67.8000 45 0 17.8925 67.8850 2 47 7 16
1985148N15067 1985 39 NI AS NOT_NAMED 1985-05-29 09:00:00 NR 18.2464 67.9672 main 397 355 P_________P___ IO021985 18.2500 67.9424 47 0 18.2428 67.9919 2 48 7 19
1985148N15067 1985 39 NI AS NOT_NAMED 1985-05-29 12:00:00 NR 18.6000 68.1000 main 355 322 O_________O___ jtwc_io IO021985 18.6000 68.1000 50 0 18.6000 68.1000 2 50 8 18
1985148N15067 1985 39 NI AS NOT_NAMED 1985-05-29 15:00:00 NR 18.9592 68.2158 main 314 282 P_________P___ IO021985 18.9425 68.2076 50 0 18.9760 68.2241 2 50 8 16
1985148N15067 1985 39 NI AS NOT_NAMED 1985-05-29 18:00:00 NR 19.3288 68.3223 main 282 243 O_________P___ jtwc_io IO021985 19.3000 68.3000 50 0 19.3575 68.3445 2 50 8 15
1985148N15067 1985 39 NI AS NOT_NAMED 1985-05-29 21:00:00 NR 19.7177 68.4325 main 243 205 P_________P___ IO021985 19.7000 68.4224 50 0 19.7353 68.4427 2 50 8 12
1985148N15067 1985 39 NI AS NOT_NAMED 1985-05-30 00:00:00 NR 20.1000 68.5000 main 205 182 O_________O___ jtwc_io IO021985 20.1000 68.5000 50 0 20.1000 68.5000 2 50 7 3
1985148N15067 1985 39 NI AS NOT_NAMED 1985-05-30 03:00:00 NR 20.4501 68.4771 main 175 159 P_________P___ IO021985 20.4650 68.4726 47 0 20.4353 68.4815 2 48 7 354
1985148N15067 1985 39 NI AS NOT_NAMED 1985-05-30 06:00:00 NR 20.7787 68.4117 main 159 136 O_________P___ jtwc_io IO021985 20.8000 68.4000 45 0 20.7575 68.4233 2 47 7 349
1985148N15067 1985 39 NI AS NOT_NAMED 1985-05-30 09:00:00 NR 21.0880 68.3479 main 144 118 P_________P___ IO021985 21.1000 68.3425 45 0 21.0759 68.3534 2 46 6 350
1985148N15067 1985 39 NI AS NOT_NAMED 1985-05-30 12:00:00 NR 21.4000 68.3000 main 118 91 O_________O___ jtwc_io IO021985 21.4000 68.3000 45 0 21.4000 68.3000 2 45 7 355
1985148N15067 1985 39 NI AS NOT_NAMED 1985-05-30 15:00:00 NR 21.7487 68.2881 main 91 65 P_________P___ IO021985 21.7425 68.2850 42 0 21.7550 68.2912 2 43 7 2
1985148N15067 1985 39 NI AS NOT_NAMED 1985-05-30 18:00:00 NR 22.1075 68.3025 main 65 61 O_________P___ jtwc_io IO021985 22.1000 68.3000 40 0 22.1149 68.3050 2 42 7 5
1985148N15067 1985 39 NI AS NOT_NAMED 1985-05-30 21:00:00 NR 22.4662 68.3419 main 65 45 P_________P___ IO021985 22.4650 68.3425 40 0 22.4675 68.3413 2 41 7 7
1985148N15067 1985 39 NI AS NOT_NAMED 1985-05-31 00:00:00 NR 22.8000 68.4000 main 45 23 O_________O___ jtwc_io IO021985 22.8000 68.4000 40 0 22.8000 68.4000 2 40 6 9
1985148N15067 1985 39 NI AS NOT_NAMED 1985-05-31 03:00:00 NR 23.0811 68.4507 main 15 10 P_________P___ IO021985 23.0575 68.4351 37 0 23.1046 68.4663 2 37 6 12
1985148N15067 1985 39 NI AS NOT_NAMED 1985-05-31 06:00:00 NR 23.3437 68.5276 main 15 0 O_________P___ jtwc_io IO021985 23.3000 68.5000 35 0 23.3874 68.5551 2 35 6 19
1985148N15067 1985 39 NI AS NOT_NAMED 1985-05-31 09:00:00 NR 23.6258 68.6544 main 0 0 P_________P___ IO021985 23.6000 68.6424 32 -1 23.6515 68.6664 2 32 6 24
1985148N15067 1985 39 NI AS NOT_NAMED 1985-05-31 12:00:00 NR 23.9000 68.8000 main 0 0 O_________O___ jtwc_io IO021985 23.9000 68.8000 30 -1 23.9000 68.8000 1 30 6 25
1985148N15067 1985 39 NI AS NOT_NAMED 1985-05-31 15:00:00 NR 24.1505 68.9201 main 0 0 P_________P___ IO021985 24.1649 68.8852 27 -1 24.1361 68.9550 1 27 5 27
1985148N15067 1985 39 NI AS NOT_NAMED 1985-05-31 18:00:00 NR 24.3814 69.0635 main 0 0 O_________P___ jtwc_io IO021985 24.4000 69.0000 25 -1 24.3627 69.1270 1 25 5 35
1985148N15067 1985 39 NI AS NOT_NAMED 1985-05-31 21:00:00 NR 24.5954 69.2638 main 0 0 P_________P___ IO021985 24.6077 69.2172 22 -1 24.5830 69.3104 1 22 6 44
1985148N15067 1985 39 NI AS NOT_NAMED 1985-06-01 00:00:00 NR 24.8000 69.5000 main 0 O_________O___ jtwc_io IO021985 24.8000 69.5000 20 -1 24.8000 69.5000 1 20 6 46

About IBTrACS Database

This database is a web-friendly format of International Best Track Archive for Climate Stewardship (IBTrACS), a global best track data archive curated by NOAA dating back to 1842.

Updated: 2021-12-03